createdAt,value
2023-03-13T00:03:27.187Z,9.92
2023-03-13T00:08:30.174Z,9.99
2023-03-13T00:13:32.337Z,9.77
2023-03-13T00:18:34.292Z,9.54
2023-03-13T00:23:38.367Z,9.47
2023-03-13T00:28:42.061Z,9.47
2023-03-13T00:33:46.592Z,9.87
2023-03-13T00:38:48.571Z,9.91
2023-03-13T00:43:50.836Z,9.56
2023-03-13T00:48:53.138Z,9.54
2023-03-13T00:53:56.434Z,9.62
2023-03-13T00:59:01.517Z,9.58
2023-03-13T01:04:09.563Z,9.85
2023-03-13T01:09:17.060Z,10.01
2023-03-13T01:14:20.632Z,9.76
2023-03-13T01:19:22.599Z,9.70
2023-03-13T01:24:24.794Z,9.64
2023-03-13T01:29:26.774Z,9.62
2023-03-13T01:34:28.725Z,9.60
2023-03-13T01:39:30.644Z,9.57
2023-03-13T01:44:57.148Z,9.75
2023-03-13T01:50:00.813Z,9.61
2023-03-13T01:55:17.875Z,9.88
2023-03-13T02:00:30.171Z,9.67
2023-03-13T02:05:32.593Z,9.62
2023-03-13T02:10:42.442Z,10.03
2023-03-13T02:15:45.405Z,10.08
2023-03-13T02:20:49.952Z,10.06
2023-03-13T02:25:56.553Z,9.97
2023-03-13T02:31:06.596Z,9.97
2023-03-13T02:36:09.751Z,10.00
2023-03-13T02:41:13.794Z,9.99
2023-03-13T02:46:18.828Z,9.99
2023-03-13T02:51:26.704Z,10.04
2023-03-13T02:56:33.630Z,10.10
2023-03-13T03:01:36.160Z,10.15
2023-03-13T03:06:38.551Z,10.19
2023-03-13T03:11:40.898Z,10.24
2023-03-13T03:16:47.558Z,10.22
2023-03-13T03:21:50.097Z,10.21
2023-03-13T03:26:54.405Z,10.22
2023-03-13T03:32:01.639Z,10.23
2023-03-13T03:37:05.842Z,10.25
2023-03-13T03:42:09.685Z,10.17
2023-03-13T03:47:12.760Z,10.15
2023-03-13T03:52:19.545Z,10.37
2023-03-13T03:57:21.776Z,10.43
2023-03-13T04:02:23.894Z,10.31
2023-03-13T04:07:26.471Z,10.21
2023-03-13T04:12:29.435Z,10.46
2023-03-13T04:17:33.565Z,10.45
2023-03-13T04:22:36.605Z,10.56
2023-03-13T04:27:38.728Z,10.64
2023-03-13T04:32:41.943Z,10.68
2023-03-13T04:37:44.003Z,10.71
2023-03-13T04:43:09.225Z,10.72
2023-03-13T04:48:29.855Z,10.76
2023-03-13T04:53:54.515Z,10.78
2023-03-13T04:59:06.601Z,10.85
2023-03-13T05:04:31.551Z,10.90
2023-03-13T05:09:52.204Z,10.92
2023-03-13T05:15:12.944Z,10.95
2023-03-13T05:20:44.464Z,10.96
2023-03-13T05:26:07.497Z,10.99
2023-03-13T05:31:45.201Z,11.01
2023-03-13T05:37:07.599Z,10.99
2023-03-13T05:42:27.082Z,11.04
2023-03-13T05:47:36.908Z,11.10
2023-03-13T05:53:02.087Z,11.19
2023-03-13T05:58:24.397Z,11.25
2023-03-13T06:03:43.186Z,11.32
2023-03-13T06:08:47.311Z,11.37
2023-03-13T06:13:52.037Z,11.42
2023-03-13T06:19:01.063Z,11.47
2023-03-13T06:24:03.100Z,11.54
2023-03-13T06:29:05.007Z,11.63
2023-03-13T06:34:07.157Z,11.67
2023-03-13T06:39:09.980Z,11.69
2023-03-13T06:44:12.089Z,11.59
2023-03-13T06:49:14.038Z,11.49
2023-03-13T06:54:16.125Z,11.39
2023-03-13T06:59:18.072Z,11.34
2023-03-13T07:04:20.376Z,11.34
2023-03-13T07:09:22.354Z,11.35
2023-03-13T07:14:24.608Z,11.48
2023-03-13T07:19:27.566Z,11.63
2023-03-13T07:24:29.579Z,11.77
2023-03-13T07:29:31.758Z,11.86
2023-03-13T07:34:33.715Z,11.85
2023-03-13T07:39:35.682Z,11.82
2023-03-13T07:44:37.642Z,11.78
2023-03-13T07:49:42.892Z,11.74
2023-03-13T07:54:44.857Z,11.72
2023-03-13T07:59:46.906Z,11.70
2023-03-13T08:04:53.215Z,11.41
2023-03-13T08:09:55.153Z,11.39
2023-03-13T08:14:57.529Z,11.32
2023-03-13T08:19:59.519Z,11.64
2023-03-13T08:25:01.438Z,11.71
2023-03-13T08:30:03.639Z,11.81
2023-03-13T08:35:06.327Z,11.74
2023-03-13T08:40:11.782Z,11.81
2023-03-13T08:45:13.791Z,11.90
2023-03-13T08:50:15.921Z,12.03
2023-03-13T08:55:17.997Z,12.12
2023-03-13T09:00:20.331Z,12.29
2023-03-13T09:05:22.230Z,12.37
2023-03-13T09:10:24.186Z,12.03
2023-03-13T09:15:26.136Z,12.11
2023-03-13T09:20:28.044Z,12.32
2023-03-13T09:25:29.944Z,12.62
2023-03-13T09:30:31.916Z,12.69
2023-03-13T09:35:34.053Z,12.65
2023-03-13T09:40:41.325Z,12.60
2023-03-13T09:45:48.451Z,12.55
2023-03-13T09:51:19.420Z,12.56
2023-03-13T09:56:24.721Z,12.82
2023-03-13T10:01:31.444Z,13.07
2023-03-13T10:06:41.862Z,13.41
2023-03-13T10:11:47.958Z,13.66
2023-03-13T10:17:20.150Z,13.90
2023-03-13T10:22:26.966Z,13.95
2023-03-13T10:27:29.023Z,13.90
2023-03-13T10:32:31.226Z,13.98
2023-03-13T10:37:41.616Z,13.59
2023-03-13T10:42:45.178Z,14.02
2023-03-13T10:47:57.603Z,14.32
2023-03-13T10:53:19.917Z,14.52
2023-03-13T10:58:30.677Z,14.78
2023-03-13T11:03:34.509Z,14.95
2023-03-13T11:08:37.870Z,14.70
2023-03-13T11:13:44.221Z,14.56
2023-03-13T11:19:02.244Z,14.63
2023-03-13T11:24:13.644Z,14.63
2023-03-13T11:29:47.725Z,14.91
2023-03-13T11:34:58.668Z,14.88
2023-03-13T11:40:26.729Z,14.66
2023-03-13T11:46:05.601Z,14.58
2023-03-13T11:51:52.929Z,14.56
2023-03-13T11:57:00.009Z,14.57
2023-03-13T12:02:28.016Z,14.55
2023-03-13T12:07:43.071Z,14.51
2023-03-13T12:12:52.526Z,14.45
2023-03-13T12:18:03.111Z,14.48
2023-03-13T12:23:17.245Z,14.56
2023-03-13T12:28:33.934Z,14.62
2023-03-13T12:33:54.337Z,15.00
2023-03-13T12:39:07.744Z,15.28
2023-03-13T12:44:18.853Z,15.35
2023-03-13T12:49:35.298Z,15.64
2023-03-13T12:54:40.036Z,15.87
2023-03-13T12:59:44.249Z,16.02
2023-03-13T13:04:49.688Z,16.07
2023-03-13T13:10:09.897Z,16.16
2023-03-13T13:15:27.108Z,16.29
2023-03-13T13:20:47.457Z,16.50
2023-03-13T13:25:49.940Z,16.91
2023-03-13T13:30:55.795Z,17.30
2023-03-13T13:36:23.279Z,17.89
2023-03-13T13:41:34.166Z,18.10
2023-03-13T13:46:36.577Z,18.04
2023-03-13T13:51:39.874Z,17.94
2023-03-13T13:56:45.561Z,17.75
2023-03-13T14:02:10.970Z,17.66
2023-03-13T14:07:18.877Z,17.71
2023-03-13T14:12:38.373Z,17.80
2023-03-13T14:17:48.173Z,17.87
2023-03-13T14:22:51.465Z,17.93
2023-03-13T14:27:54.928Z,17.96
2023-03-13T14:32:56.901Z,18.01
2023-03-13T14:38:02.883Z,17.87
2023-03-13T14:43:05.267Z,17.64
2023-03-13T14:48:34.354Z,17.56
2023-03-13T14:53:36.614Z,17.50
2023-03-13T14:58:38.576Z,17.05
2023-03-13T15:03:48.645Z,16.98
2023-03-13T15:09:19.933Z,16.94
2023-03-13T15:14:41.942Z,17.33
2023-03-13T15:19:48.860Z,17.34
2023-03-13T15:25:05.012Z,17.30
2023-03-13T15:30:07.936Z,17.27
2023-03-13T15:35:32.637Z,17.25
2023-03-13T15:40:34.681Z,17.18
2023-03-13T15:45:38.856Z,17.15
2023-03-13T15:50:40.752Z,17.22
2023-03-13T15:55:50.272Z,17.28
2023-03-13T16:00:52.881Z,17.34
2023-03-13T16:05:56.607Z,17.37
2023-03-13T16:10:58.686Z,17.37
2023-03-13T16:16:00.785Z,17.21
2023-03-13T16:21:02.780Z,17.12
2023-03-13T16:26:12.805Z,17.09
2023-03-13T16:31:27.760Z,17.03
2023-03-13T16:36:32.029Z,16.90
2023-03-13T16:41:34.078Z,16.84
2023-03-13T16:46:43.306Z,16.80
2023-03-13T16:51:47.986Z,16.39
2023-03-13T16:56:49.858Z,16.25
2023-03-13T17:01:52.431Z,16.20
2023-03-13T17:06:54.277Z,16.08
2023-03-13T17:11:56.103Z,16.01
2023-03-13T17:16:58.056Z,15.98
2023-03-13T17:21:59.875Z,15.84
2023-03-13T17:27:01.731Z,15.83
2023-03-13T17:32:04.247Z,15.83
2023-03-13T17:37:15.623Z,15.82
2023-03-13T17:42:18.785Z,15.61
2023-03-13T17:47:24.415Z,15.52
2023-03-13T17:52:26.764Z,15.90
2023-03-13T17:57:29.059Z,16.09
2023-03-13T18:02:31.648Z,16.12
2023-03-13T18:07:35.660Z,16.09
2023-03-13T18:12:37.998Z,16.00
2023-03-13T18:17:40.965Z,15.87
2023-03-13T18:22:43.395Z,15.82
2023-03-13T18:27:46.028Z,15.23
2023-03-13T18:32:48.685Z,15.16
2023-03-13T18:37:50.628Z,15.11
2023-03-13T18:42:52.547Z,15.11
2023-03-13T18:47:54.879Z,15.19
2023-03-13T18:52:58.921Z,15.24
2023-03-13T18:58:01.096Z,15.30
2023-03-13T19:03:03.079Z,15.38
2023-03-13T19:08:05.041Z,15.39
2023-03-13T19:13:06.973Z,15.40
2023-03-13T19:18:11.834Z,15.40
2023-03-13T19:23:13.801Z,15.39
2023-03-13T19:28:15.860Z,15.43
2023-03-13T19:33:18.277Z,15.43
2023-03-13T19:38:20.404Z,15.39
2023-03-13T19:43:22.332Z,14.97
2023-03-13T19:48:24.374Z,14.67
2023-03-13T19:53:26.221Z,14.40
2023-03-13T19:58:28.154Z,14.17
2023-03-13T20:03:30.107Z,13.95
2023-03-13T20:08:32.030Z,13.71
2023-03-13T20:13:33.951Z,13.52
2023-03-13T20:18:35.870Z,13.34
2023-03-13T20:23:37.761Z,13.10
2023-03-13T20:28:42.377Z,12.91
2023-03-13T20:33:44.238Z,12.81
2023-03-13T20:38:46.541Z,12.80
2023-03-13T20:43:48.402Z,12.84
2023-03-13T20:48:50.376Z,12.88
2023-03-13T20:53:52.206Z,12.85
2023-03-13T20:58:54.061Z,12.84
2023-03-13T21:03:55.893Z,12.80
2023-03-13T21:08:57.720Z,12.78
2023-03-13T21:13:59.544Z,12.80
2023-03-13T21:19:01.463Z,12.79
2023-03-13T21:24:03.671Z,12.93
2023-03-13T21:29:06.305Z,12.84
2023-03-13T21:34:08.691Z,12.85
2023-03-13T21:39:12.155Z,12.85
2023-03-13T21:44:15.913Z,12.82
2023-03-13T21:49:17.875Z,12.99
2023-03-13T21:54:19.676Z,13.08
2023-03-13T21:59:26.355Z,12.94
2023-03-13T22:04:28.205Z,12.89
2023-03-13T22:09:30.026Z,13.34
2023-03-13T22:14:31.874Z,13.46
2023-03-13T22:19:34.393Z,13.52
2023-03-13T22:24:36.336Z,13.44
2023-03-13T22:29:38.202Z,13.42
2023-03-13T22:34:44.982Z,13.31
2023-03-13T22:39:46.868Z,13.31
2023-03-13T22:44:48.733Z,13.28
2023-03-13T22:49:50.687Z,12.97
2023-03-13T22:54:52.510Z,12.91
2023-03-13T22:59:54.605Z,13.13
2023-03-13T23:04:58.622Z,13.15
2023-03-13T23:10:00.539Z,13.13
2023-03-13T23:15:02.402Z,13.03
2023-03-13T23:20:13.246Z,13.01
2023-03-13T23:25:15.908Z,13.05
2023-03-13T23:30:18.746Z,13.09
2023-03-13T23:35:20.768Z,13.15
2023-03-13T23:40:23.836Z,13.22
2023-03-13T23:45:25.728Z,13.28
2023-03-13T23:50:27.786Z,13.27
2023-03-13T23:55:29.637Z,13.30
